Time;durP1;ratioP1;P1;durP2;ratioP2;P2;SDS_P1;SDS_P2;PMS_P1;PMS_P2;Temp;Humidity;BMP_temperature;BMP_pressure;BME280_temperature;BME280_humidity;BME280_pressure;Samples;Min_cycle;Max_cycle;Signal;HPM_P1;HPM_P2
2021/11/09 00:01:49;;;;;;;39.88;31.33;;;;;;;8.32;100.00;101219.40;1612791;87;21034;-80
2021/11/09 00:04:10;;;;;;;40.23;31.95;;;;;;;8.44;100.00;101217.87;1630585;87;21582;-80
2021/11/09 00:06:43;;;;;;;46.18;31.97;;;;;;;8.43;100.00;101212.30;1633444;87;21574;-81
2021/11/09 00:09:16;;;;;;;44.27;31.20;;;;;;;8.48;100.00;101206.41;1630570;87;21157;-81
2021/11/09 00:11:39;;;;;;;50.40;32.98;;;;;;;8.58;100.00;101203.29;1632045;87;21266;-84
2021/11/09 00:14:10;;;;;;;55.92;34.35;;;;;;;8.60;100.00;101209.23;1633207;87;21140;-82
2021/11/09 00:16:38;;;;;;;45.60;32.40;;;;;;;8.63;100.00;101202.55;1633288;87;21185;-80
2021/11/09 00:19:05;;;;;;;43.85;32.25;;;;;;;8.73;100.00;101199.81;1633219;87;21034;-81
2021/11/09 00:21:33;;;;;;;43.92;32.23;;;;;;;8.76;100.00;101204.84;1633150;87;21046;-81
2021/11/09 00:24:01;;;;;;;42.80;31.90;;;;;;;8.76;100.00;101202.23;1633309;87;21815;-80
2021/11/09 00:26:29;;;;;;;40.95;31.02;;;;;;;8.71;100.00;101197.75;1627449;88;21459;-81
2021/11/09 00:28:59;;;;;;;40.60;30.80;;;;;;;8.67;100.00;101185.89;1606379;89;21077;-81
2021/11/09 00:31:26;;;;;;;38.95;30.80;;;;;;;8.66;100.00;101186.81;1606233;86;21129;-81
2021/11/09 00:33:54;;;;;;;45.58;31.73;;;;;;;8.63;100.00;101198.22;1606448;89;21133;-82
2021/11/09 00:36:21;;;;;;;35.43;27.98;;;;;;;8.62;100.00;101199.58;1605431;87;21848;-80
2021/11/09 00:38:48;;;;;;;38.30;30.60;;;;;;;8.65;100.00;101198.11;1585995;89;21504;-80
2021/11/09 00:41:15;;;;;;;39.42;29.90;;;;;;;8.68;100.00;101199.25;1627485;86;21943;-82
2021/11/09 00:43:42;;;;;;;34.67;27.73;;;;;;;8.69;100.00;101189.24;1586314;89;21551;-81
2021/11/09 00:46:10;;;;;;;37.48;29.85;;;;;;;8.69;100.00;101191.84;1627610;88;21562;-80
2021/11/09 00:48:37;;;;;;;38.15;28.77;;;;;;;8.61;100.00;101193.56;1602887;89;21568;-80
2021/11/09 00:51:05;;;;;;;38.53;28.25;;;;;;;8.51;100.00;101195.86;1624867;88;21338;-81
2021/11/09 00:53:35;;;;;;;36.35;28.23;;;;;;;8.49;100.00;101188.62;1597896;89;21047;-82
2021/11/09 00:56:03;;;;;;;34.55;27.58;;;;;;;8.49;100.00;101191.21;1625304;87;21086;-81
2021/11/09 00:58:32;;;;;;;30.82;25.97;;;;;;;8.50;100.00;101188.14;1598353;89;21161;-82
2021/11/09 01:01:03;;;;;;;33.88;26.82;;;;;;;8.55;100.00;101193.92;1640392;86;21053;-82
2021/11/09 01:03:30;;;;;;;44.03;27.10;;;;;;;8.56;100.00;101202.09;1655680;85;21150;-83
2021/11/09 01:05:59;;;;;;;36.42;28.35;;;;;;;8.53;100.00;101199.66;1683275;85;21579;-81
2021/11/09 01:08:27;;;;;;;37.55;26.65;;;;;;;8.51;100.00;101202.35;1683531;85;21058;-80
2021/11/09 01:10:54;;;;;;;39.92;28.15;;;;;;;8.41;100.00;101203.75;1683133;85;21125;-80
2021/11/09 01:13:25;;;;;;;38.58;27.80;;;;;;;8.41;100.00;101209.42;1683084;84;21145;-80
2021/11/09 01:15:55;;;;;;;35.35;26.68;;;;;;;8.40;100.00;101205.97;1683147;84;21606;-80
2021/11/09 01:18:29;;;;;;;;;;;;;;;8.37;100.00;101206.98;1685695;85;21548;-81
2021/11/09 01:20:57;;;;;;;39.10;26.97;;;;;;;8.29;100.00;101213.55;1676254;85;20183;-81
2021/11/09 01:23:26;;;;;;;37.70;27.00;;;;;;;8.20;100.00;101212.28;1673833;85;21160;-81
2021/11/09 01:25:54;;;;;;;36.48;28.25;;;;;;;8.12;100.00;101202.78;1673744;85;21818;-81
2021/11/09 01:28:22;;;;;;;34.55;27.40;;;;;;;8.01;100.00;101208.58;1673453;84;21090;-81
2021/11/09 01:30:49;;;;;;;35.60;27.40;;;;;;;7.94;100.00;101196.39;1673638;85;21015;-81
2021/11/09 01:33:17;;;;;;;33.25;26.55;;;;;;;7.96;100.00;101206.70;1653941;85;21109;-83
2021/11/09 01:35:44;;;;;;;33.98;26.82;;;;;;;7.95;100.00;101214.09;1669753;84;21054;-81
2021/11/09 01:38:12;;;;;;;32.93;26.40;;;;;;;7.97;100.00;101213.09;1669244;85;21119;-82
2021/11/09 01:40:41;;;;;;;38.17;28.20;;;;;;;8.01;100.00;101207.27;1664673;85;21113;-80
2021/11/09 01:43:09;;;;;;;33.15;26.65;;;;;;;8.00;100.00;101213.37;1613433;87;21006;-81
2021/11/09 01:45:38;;;;;;;35.68;28.73;;;;;;;8.04;100.00;101221.38;1633350;87;21085;-81
2021/11/09 01:48:06;;;;;;;31.77;26.68;;;;;;;8.00;100.00;101219.42;1633756;87;21073;-81
2021/11/09 01:50:39;;;;;;;29.85;26.12;;;;;;;7.96;100.00;101225.68;1612831;87;21913;-80
2021/11/09 01:53:10;;;;;;;32.93;26.17;;;;;;;7.90;100.00;101216.47;1610052;87;22225;-81
2021/11/09 01:55:40;;;;;;;34.33;26.35;;;;;;;7.87;100.00;101221.84;1640044;85;21038;-82
2021/11/09 01:58:10;;;;;;;30.90;24.85;;;;;;;7.88;100.00;101224.81;1671165;85;22334;-80
2021/11/09 02:00:57;;;;;;;32.73;25.43;;;;;;;7.90;100.00;101224.72;1653908;85;21511;-81
2021/11/09 02:03:26;;;;;;;32.67;25.35;;;;;;;7.91;100.00;101234.17;1631753;87;21134;-81
2021/11/09 02:05:54;;;;;;;34.60;24.85;;;;;;;7.89;100.00;101230.35;1633524;87;21151;-81
2021/11/09 02:08:27;;;;;;;34.95;26.27;;;;;;;7.93;100.00;101231.49;1633410;86;21566;-79
2021/11/09 02:10:53;;;;;;;33.83;25.97;;;;;;;8.00;100.00;101236.28;1632826;87;21086;-82
2021/11/09 02:13:22;;;;;;;33.48;25.97;;;;;;;8.05;100.00;101248.52;1637330;85;21572;-80
2021/11/09 02:15:51;;;;;;;32.60;25.25;;;;;;;8.02;100.00;101237.48;1662372;86;21881;-80
2021/11/09 02:18:20;;;;;;;34.67;26.17;;;;;;;7.97;100.00;101236.91;1643091;86;21737;-82
2021/11/09 02:20:53;;;;;;;33.67;25.15;;;;;;;7.93;100.00;101225.01;1656284;86;21086;-81
2021/11/09 02:23:20;;;;;;;35.38;23.60;;;;;;;7.99;100.00;101226.82;1649977;87;21122;-81
2021/11/09 02:25:49;;;;;;;33.25;24.47;;;;;;;8.02;100.00;101227.93;1649704;87;21081;-81
2021/11/09 02:28:17;;;;;;;31.02;23.50;;;;;;;7.98;100.00;101227.73;1632711;87;21074;-81
2021/11/09 02:30:45;;;;;;;30.37;24.75;;;;;;;7.88;100.00;101237.78;1649896;87;21125;-82
2021/11/09 02:33:15;;;;;;;31.93;24.98;;;;;;;7.82;100.00;101241.16;1649961;87;21106;-81
2021/11/09 02:35:43;;;;;;;29.67;24.12;;;;;;;7.84;100.00;101245.33;1649869;87;21097;-81
2021/11/09 02:38:11;;;;;;;30.35;23.95;;;;;;;7.84;100.00;101249.22;1649895;87;21097;-81
2021/11/09 02:40:39;;;;;;;33.02;24.27;;;;;;;7.81;100.00;101245.48;1649774;87;21192;-80
2021/11/09 02:43:10;;;;;;;28.05;21.62;;;;;;;7.81;100.00;101245.48;1649947;87;21034;-81
2021/11/09 02:48:40;;;;;;;31.07;24.43;;;;;;;7.85;100.00;101236.64;1649917;87;21141;-80
2021/11/09 02:56:29;;;;;;;30.72;24.27;;;;;;;7.75;100.00;101248.41;1650148;87;21528;-82
2021/11/09 03:04:11;;;;;;;31.12;23.75;;;;;;;7.69;100.00;101240.96;1642150;87;21042;-81
2021/11/09 03:06:45;;;;;;;28.90;23.62;;;;;;;7.70;100.00;101242.64;1643300;87;21125;-81
2021/11/09 03:11:43;;;;;;;30.20;24.30;;;;;;;7.65;100.00;101240.77;1642010;87;21078;-80
2021/11/09 03:14:09;;;;;;;29.42;22.62;;;;;;;7.64;100.00;101234.73;1638857;86;21349;-80
2021/11/09 03:16:39;;;;;;;31.87;23.65;;;;;;;7.65;100.00;101247.24;1591783;88;21116;-80
2021/11/09 03:46:49;;;;;;;27.85;21.68;;;;;;;7.85;100.00;101231.45;1642411;86;21091;-80
2021/11/09 03:49:19;;;;;;;26.57;21.50;;;;;;;7.88;100.00;101235.19;1662467;86;21039;-80
2021/11/09 03:51:46;;;;;;;23.65;19.70;;;;;;;7.92;100.00;101235.00;1665853;86;21082;-84
2021/11/09 03:54:16;;;;;;;25.92;20.62;;;;;;;7.95;100.00;101247.81;1665384;86;21572;-85
2021/11/09 03:56:59;;;;;;;24.67;20.62;;;;;;;7.97;100.00;101249.88;1642671;86;21098;-80
2021/11/09 03:59:28;;;;;;;24.32;19.42;;;;;;;8.00;100.00;101245.36;1663798;86;21172;-82
2021/11/09 04:07:04;;;;;;;36.40;21.00;;;;;;;8.13;100.00;101245.97;1665972;86;21607;-80
2021/11/09 04:09:31;;;;;;;45.52;21.35;;;;;;;8.27;100.00;101246.52;1661505;86;21095;-81
2021/11/09 04:11:58;;;;;;;31.23;20.40;;;;;;;8.35;100.00;101243.86;1661945;86;21154;-80
2021/11/09 04:14:37;;;;;;;62.05;21.50;;;;;;;8.38;100.00;101248.03;1661978;86;21561;-80
2021/11/09 04:17:07;;;;;;;84.93;22.30;;;;;;;8.39;100.00;101247.12;1662570;86;21114;-83
2021/11/09 04:19:41;;;;;;;45.58;21.23;;;;;;;8.43;100.00;101259.02;1662043;86;21126;-82
2021/11/09 04:25:13;;;;;;;38.05;20.37;;;;;;;8.33;100.00;101248.77;1657390;84;21170;-83
2021/11/09 04:32:36;;;;;;;37.53;20.20;;;;;;;8.02;100.00;101261.65;1666147;85;21074;-83
2021/11/09 04:35:21;;;;;;;29.37;18.70;;;;;;;7.95;100.00;101260.78;1656382;86;21349;-83
2021/11/09 05:10:04;;;;;;;24.12;18.85;;;;;;;7.70;100.00;101297.08;1666521;85;21140;-82
2021/11/09 05:12:28;;;;;;;31.90;18.35;;;;;;;7.63;100.00;101308.22;1651888;85;21109;-82
2021/11/09 05:14:56;;;;;;;23.45;18.82;;;;;;;7.60;100.00;101317.91;1666566;85;20978;-82
2021/11/09 05:17:23;;;;;;;25.82;18.60;;;;;;;7.54;100.00;101316.02;1631666;87;21205;-82
2021/11/09 05:19:50;;;;;;;31.97;17.12;;;;;;;7.45;100.00;101321.66;1661384;85;21779;-82
2021/11/09 05:22:18;;;;;;;25.57;18.50;;;;;;;7.36;100.00;101319.53;1622707;86;21034;-83
2021/11/09 05:24:45;;;;;;;22.50;17.40;;;;;;;7.27;100.00;101323.44;1626736;87;21090;-83
2021/11/09 05:27:15;;;;;;;19.85;17.00;;;;;;;7.18;100.00;101323.42;1624047;88;21058;-82
2021/11/09 05:29:44;;;;;;;26.50;17.95;;;;;;;7.13;100.00;101331.88;1623833;86;21860;-83
2021/11/09 05:32:11;;;;;;;29.25;18.15;;;;;;;7.06;100.00;101327.92;1600605;88;21095;-83
2021/11/09 05:34:38;;;;;;;29.90;18.55;;;;;;;7.14;100.00;101335.30;1629875;86;21610;-84
2021/11/09 05:37:09;;;;;;;30.37;19.77;;;;;;;7.17;100.00;101333.86;1631939;86;21987;-82
2021/11/09 05:39:43;;;;;;;23.87;18.37;;;;;;;7.20;100.00;101346.20;1631542;87;21968;-85
2021/11/09 05:42:03;;;;;;;26.62;17.85;;;;;;;7.17;100.00;101343.76;1598018;87;21200;-82
2021/11/09 05:44:31;;;;;;;23.15;17.55;;;;;;;7.19;100.00;101348.88;1634354;86;21053;-82
2021/11/09 05:46:58;;;;;;;20.60;17.32;;;;;;;7.19;100.00;101347.59;1640469;86;21035;-82
2021/11/09 05:49:25;;;;;;;24.20;16.97;;;;;;;7.19;100.00;101356.19;1649603;85;21156;-83
2021/11/09 05:51:52;;;;;;;21.57;17.45;;;;;;;7.18;100.00;101348.03;1653139;85;21594;-82
2021/11/09 05:54:19;;;;;;;25.92;19.00;;;;;;;7.17;100.00;101348.11;1633986;86;21079;-82
2021/11/09 05:56:47;;;;;;;26.42;21.90;;;;;;;7.18;100.00;101352.38;1653234;85;21165;-83
2021/11/09 05:59:15;;;;;;;26.30;20.27;;;;;;;7.19;100.00;101351.47;1653276;85;21097;-84
2021/11/09 06:01:42;;;;;;;25.25;19.87;;;;;;;7.20;100.00;101360.45;1650215;85;21295;-82
2021/11/09 06:04:09;;;;;;;37.42;24.55;;;;;;;7.18;100.00;101353.68;1653533;85;21582;-82
2021/11/09 06:06:36;;;;;;;43.95;26.42;;;;;;;7.22;100.00;101348.27;1634684;86;21106;-82
2021/11/09 06:09:03;;;;;;;51.83;29.18;;;;;;;7.18;100.00;101352.38;1653638;85;21070;-82
2021/11/09 06:11:30;;;;;;;40.20;25.97;;;;;;;7.14;100.00;101360.77;1653580;85;21094;-83
2021/11/09 06:13:57;;;;;;;29.80;21.77;;;;;;;7.12;100.00;101362.58;1653193;85;21062;-82
2021/11/09 06:16:25;;;;;;;24.75;18.98;;;;;;;7.11;100.00;101357.02;1653760;85;21038;-82
2021/11/09 06:18:52;;;;;;;30.65;20.32;;;;;;;7.12;100.00;101356.11;1649248;86;21154;-83
2021/11/09 06:21:19;;;;;;;32.70;21.48;;;;;;;7.08;100.00;101358.48;1638937;85;21105;-82
2021/11/09 06:23:46;;;;;;;36.03;23.18;;;;;;;7.02;100.00;101361.34;1633297;86;22123;-82
2021/11/09 06:26:14;;;;;;;32.05;21.07;;;;;;;7.03;100.00;101368.20;1633616;87;21115;-82
2021/11/09 06:28:42;;;;;;;29.35;18.25;;;;;;;7.08;100.00;101363.19;1633825;87;21068;-82
2021/11/09 06:31:10;;;;;;;25.10;17.45;;;;;;;7.08;100.00;101355.89;1632004;87;21928;-82
2021/11/09 06:33:38;;;;;;;27.58;18.42;;;;;;;7.12;100.00;101369.05;1640685;86;21148;-83
2021/11/09 06:36:05;;;;;;;24.00;17.55;;;;;;;7.15;100.00;101365.03;1667829;86;21038;-83
2021/11/09 06:38:33;;;;;;;20.02;15.98;;;;;;;7.16;100.00;101361.97;1667784;86;21538;-82
2021/11/09 06:41:00;;;;;;;18.15;15.60;;;;;;;7.14;100.00;101361.20;1667916;86;21026;-82
2021/11/09 06:43:27;;;;;;;17.52;14.35;;;;;;;7.14;100.00;101359.91;1667736;86;21154;-82
2021/11/09 06:45:56;;;;;;;19.35;15.35;;;;;;;7.12;100.00;101359.98;1606028;87;21047;-82
2021/11/09 06:48:26;;;;;;;18.42;15.65;;;;;;;7.09;100.00;101358.86;1598887;89;21082;-82
2021/11/09 06:50:54;;;;;;;19.37;15.60;;;;;;;7.09;100.00;101361.45;1621441;88;21138;-83
2021/11/09 06:53:22;;;;;;;18.45;15.98;;;;;;;7.09;100.00;101357.09;1621358;88;21111;-83
2021/11/09 06:55:50;;;;;;;18.15;15.20;;;;;;;7.14;100.00;101347.81;1580768;89;21825;-83
2021/11/09 06:58:17;;;;;;;19.25;15.68;;;;;;;7.25;100.00;101356.34;1621333;88;21539;-82
2021/11/09 07:00:44;;;;;;;20.17;15.25;;;;;;;7.30;100.00;101358.23;1618882;86;21034;-82
2021/11/09 07:03:12;;;;;;;20.60;14.93;;;;;;;7.31;100.00;101359.92;1617107;87;21070;-82
2021/11/09 07:05:40;;;;;;;17.07;14.15;;;;;;;7.33;100.00;101370.23;1625815;88;21662;-85
2021/11/09 07:08:07;;;;;;;19.45;14.23;;;;;;;7.29;100.00;101369.52;1636682;86;21305;-85
2021/11/09 07:10:34;;;;;;;19.48;13.83;;;;;;;7.32;100.00;101369.84;1619630;88;21105;-85
2021/11/09 07:13:02;;;;;;;18.85;14.68;;;;;;;7.31;100.00;101377.23;1652176;86;21583;-87
2021/11/09 07:15:30;;;;;;;19.10;13.62;;;;;;;7.29;100.00;101378.58;1625274;86;21071;-84
2021/11/09 07:17:59;;;;;;;16.45;13.93;;;;;;;7.28;100.00;101389.03;1626042;88;21078;-80
2021/11/09 07:20:26;;;;;;;17.57;13.78;;;;;;;7.30;100.00;101376.37;1625865;88;21164;-80
2021/11/09 07:22:54;;;;;;;17.27;13.20;;;;;;;7.36;100.00;101373.95;1619065;88;21039;-81
2021/11/09 07:25:21;;;;;;;15.48;13.22;;;;;;;7.39;100.00;101387.59;1658318;86;21123;-82
2021/11/09 07:27:48;;;;;;;18.02;13.58;;;;;;;7.41;100.00;101383.17;1639410;86;21092;-83
2021/11/09 07:30:16;;;;;;;15.70;13.00;;;;;;;7.40;100.00;101384.55;1640330;86;21126;-82
2021/11/09 07:32:46;;;;;;;15.23;13.03;;;;;;;7.35;100.00;101386.08;1648438;86;21066;-81
2021/11/09 07:35:15;;;;;;;55.30;14.95;;;;;;;7.34;100.00;101383.10;1625908;86;21536;-81
2021/11/09 07:37:42;;;;;;;36.08;13.25;;;;;;;7.40;100.00;101393.16;1622762;86;21105;-82
2021/11/09 07:40:12;;;;;;;29.12;13.53;;;;;;;7.35;100.00;101389.11;1614342;86;21101;-82
2021/11/09 07:42:48;;;;;;;24.67;12.65;;;;;;;7.32;100.00;101397.05;1628410;86;21410;-81
2021/11/09 07:45:12;;;;;;;14.80;11.63;;;;;;;7.28;100.00;101396.80;1598777;87;21898;-82
2021/11/09 07:47:39;;;;;;;14.63;11.22;;;;;;;7.24;100.00;101396.11;1631949;87;21428;-83
2021/11/09 07:50:07;;;;;;;15.63;10.95;;;;;;;7.19;100.00;101411.88;1632234;87;21069;-82
2021/11/09 07:52:34;;;;;;;15.85;10.93;;;;;;;7.18;100.00;101419.26;1631358;87;21505;-84
2021/11/09 07:55:05;;;;;;;18.15;10.53;;;;;;;7.18;100.00;101424.44;1624804;88;21070;-84
2021/11/09 07:57:43;;;;;;;13.45;10.25;;;;;;;7.21;100.00;101435.14;1623496;86;21619;-82
2021/11/09 08:00:19;;;;;;;13.38;10.03;;;;;;;7.24;100.00;101434.53;1622204;86;21547;-83
2021/11/09 08:02:47;;;;;;;14.50;11.00;;;;;;;7.27;100.00;101436.13;1625112;86;21287;-82
2021/11/09 08:05:09;;;;;;;13.60;11.00;;;;;;;7.33;100.00;101432.41;1621789;86;21432;-84
2021/11/09 08:07:48;;;;;;;13.32;10.88;;;;;;;7.35;100.00;101421.49;1629780;86;21318;-83
2021/11/09 08:10:07;;;;;;;18.75;11.33;;;;;;;7.39;100.00;101411.38;1631948;86;21166;-84
2021/11/09 08:12:36;;;;;;;15.48;11.18;;;;;;;7.43;100.00;101410.30;1631439;86;21077;-83
2021/11/09 08:15:05;;;;;;;13.80;10.63;;;;;;;7.50;100.00;101410.37;1632910;86;21069;-82
2021/11/09 08:17:32;;;;;;;11.55;9.88;;;;;;;7.57;100.00;101403.97;1634561;86;21165;-83
2021/11/09 08:20:31;;;;;;;11.35;9.70;;;;;;;7.66;100.00;101409.61;1632424;86;21050;-83
2021/11/09 08:22:58;;;;;;;12.18;10.10;;;;;;;7.75;100.00;101415.63;1625454;86;21167;-82
2021/11/09 08:25:25;;;;;;;12.85;9.75;;;;;;;7.81;100.00;101410.13;1645995;85;21066;-83
2021/11/09 08:27:52;;;;;;;12.65;9.70;;;;;;;7.86;100.00;101406.01;1645751;86;21043;-83
2021/11/09 08:30:19;;;;;;;13.15;9.38;;;;;;;7.93;100.00;101407.40;1633232;87;21152;-84
2021/11/09 08:32:48;;;;;;;15.98;9.70;;;;;;;8.01;100.00;101412.17;1629505;88;21133;-82
2021/11/09 08:35:21;;;;;;;12.10;9.33;;;;;;;8.02;100.00;101412.09;1629546;87;21144;-84
2021/11/09 08:37:46;;;;;;;12.75;9.15;;;;;;;8.00;100.00;101435.14;1626047;88;21594;-83
2021/11/09 08:40:17;;;;;;;12.33;8.98;;;;;;;7.90;100.00;101436.07;1629722;87;21065;-83
2021/11/09 08:42:48;;;;;;;12.58;9.05;;;;;;;7.83;100.00;101426.45;1599210;89;21034;-82
2021/11/09 08:45:22;;;;;;;12.25;9.05;;;;;;;7.81;100.00;101416.61;1638573;86;21030;-83
2021/11/09 08:47:46;;;;;;;11.65;9.88;;;;;;;7.83;100.00;101409.60;1656659;86;21190;-83
2021/11/09 08:50:12;;;;;;;13.83;10.10;;;;;;;7.89;100.00;101411.88;1618427;88;21061;-83
2021/11/09 08:52:40;;;;;;;12.13;9.50;;;;;;;7.94;100.00;101412.94;1659559;86;21195;-83
2021/11/09 09:06:08;;;;;;;10.35;8.00;;;;;;;8.24;100.00;101416.18;1638271;86;21089;-84
2021/11/09 09:08:36;;;;;;;10.90;8.75;;;;;;;8.19;100.00;101416.42;1638426;86;21072;-83
2021/11/09 09:11:04;;;;;;;12.40;8.83;;;;;;;8.18;100.00;101416.03;1659430;86;21646;-83
2021/11/09 09:13:31;;;;;;;11.73;9.05;;;;;;;8.18;100.00;101407.39;1659741;86;21171;-82
2021/11/09 09:15:58;;;;;;;10.23;8.40;;;;;;;8.21;100.00;101408.55;1659630;86;21089;-84
2021/11/09 09:18:26;;;;;;;12.43;8.13;;;;;;;8.27;100.00;101415.17;1659560;86;21034;-83
2021/11/09 09:21:07;;;;;;;10.38;8.53;;;;;;;8.28;100.00;101419.45;1659533;86;21030;-83
2021/11/09 09:23:32;;;;;;;9.73;8.23;;;;;;;8.22;100.00;101408.92;1656477;86;21046;-83
2021/11/09 09:26:10;;;;;;;11.05;8.15;;;;;;;8.16;100.00;101404.06;1636134;86;21124;-84
2021/11/09 09:56:18;;;;;;;9.33;6.30;;;;;;;7.89;100.00;101448.18;1624548;87;21593;-83
2021/11/09 09:58:43;;;;;;;7.60;6.05;;;;;;;7.89;100.00;101461.14;1633012;87;21049;-83
2021/11/09 10:01:12;;;;;;;5.80;5.20;;;;;;;7.92;100.00;101454.99;1623227;87;21053;-83
2021/11/09 10:03:42;;;;;;;7.95;5.50;;;;;;;7.94;100.00;101445.83;1634820;86;21751;-83
2021/11/09 10:06:10;;;;;;;5.97;4.83;;;;;;;7.96;100.00;101442.70;1623575;87;21148;-84
2021/11/09 10:08:48;;;;;;;5.30;4.80;;;;;;;8.01;100.00;101434.22;1623865;87;21022;-84
2021/11/09 10:11:38;;;;;;;5.20;4.70;;;;;;;8.09;100.00;101433.37;1635028;87;21097;-83
2021/11/09 10:14:07;;;;;;;4.60;4.08;;;;;;;8.17;100.00;101441.59;1623846;87;21014;-83
2021/11/09 10:16:38;;;;;;;4.72;3.77;;;;;;;8.19;100.00;101442.36;1634559;87;21015;-82
2021/11/09 10:19:07;;;;;;;4.42;3.90;;;;;;;8.13;100.00;101434.05;1633238;86;21081;-83
2021/11/09 10:21:41;;;;;;;5.20;3.80;;;;;;;8.03;100.00;101434.98;1623432;87;21685;-82
2021/11/09 10:24:29;;;;;;;4.70;4.17;;;;;;;7.92;100.00;101434.69;1634937;86;21044;-86
2021/11/09 10:27:11;;;;;;;4.90;4.00;;;;;;;7.82;100.00;101438.21;1631872;87;21074;-83
2021/11/09 10:29:46;;;;;;;5.62;4.17;;;;;;;7.81;100.00;101450.79;1628297;88;21750;-82
2021/11/09 10:32:20;;;;;;;5.37;3.92;;;;;;;7.83;100.00;101435.53;1631982;87;21909;-82
2021/11/09 10:34:48;;;;;;;6.75;4.37;;;;;;;7.83;100.00;101422.56;1632072;87;21101;-81
2021/11/09 10:37:26;;;;;;;8.83;4.35;;;;;;;7.80;100.00;101433.11;1632067;87;21025;-83
2021/11/09 10:39:56;;;;;;;3.95;3.05;;;;;;;7.77;100.00;101443.63;1631560;87;21089;-85
2021/11/09 10:42:27;;;;;;;3.55;3.15;;;;;;;7.70;100.00;101446.14;1632150;87;21064;-82
2021/11/09 10:45:00;;;;;;;4.12;3.35;;;;;;;7.68;100.00;101445.38;1632184;87;21802;-81
2021/11/09 10:47:32;;;;;;;8.33;3.55;;;;;;;7.67;100.00;101438.51;1605544;89;21596;-81
2021/11/09 10:50:17;;;;;;;5.75;3.58;;;;;;;7.65;100.00;101441.66;1662575;86;21049;-83
2021/11/09 10:52:42;;;;;;;4.40;3.77;;;;;;;7.64;100.00;101446.45;1584718;88;21617;-82
2021/11/09 10:57:55;;;;;;;4.97;4.47;;;;;;;7.69;100.00;101441.88;1662512;86;21161;-82
2021/11/09 11:03:15;;;;;;;5.30;4.12;;;;;;;7.76;100.00;101441.95;1620411;87;21134;-81
2021/11/09 11:03:38;;;;;;;4.08;3.12;;;;;;;7.77;100.00;101443.63;1638161;86;21098;-82
2021/11/09 11:06:25;;;;;;;3.80;3.40;;;;;;;7.72;100.00;101455.98;1637873;86;21097;-81
2021/11/09 11:09:10;;;;;;;4.50;3.60;;;;;;;7.66;100.00;101439.42;1662640;86;21113;-81
2021/11/09 11:11:51;;;;;;;5.12;2.95;;;;;;;7.61;100.00;101441.41;1649818;86;22035;-81
2021/11/09 11:14:25;;;;;;;3.33;2.30;;;;;;;7.56;100.00;101448.97;1662373;86;21658;-85
2021/11/09 11:17:06;;;;;;;2.62;2.17;;;;;;;7.49;100.00;101465.71;1662231;86;21606;-84
2021/11/09 11:19:57;;;;;;;3.62;2.00;;;;;;;7.45;100.00;101449.94;1662454;86;21065;-84
2021/11/09 11:22:28;;;;;;;4.12;2.12;;;;;;;7.38;100.00;101455.87;1662251;86;21098;-83
2021/11/09 11:25:00;;;;;;;1.40;1.25;;;;;;;7.32;100.00;101475.60;1659024;84;21025;-83
2021/11/09 11:27:32;;;;;;;1.55;1.35;;;;;;;7.28;100.00;101473.23;1664434;84;21048;-83
2021/11/09 11:30:01;;;;;;;3.20;1.50;;;;;;;7.24;100.00;101473.83;1657123;85;21152;-84
2021/11/09 11:32:30;;;;;;;1.92;1.52;;;;;;;7.20;100.00;101474.44;1663482;85;21793;-83
2021/11/09 11:34:57;;;;;;;1.20;1.10;;;;;;;7.16;100.00;101485.01;1664292;85;21053;-84
2021/11/09 11:37:24;;;;;;;1.92;1.60;;;;;;;7.12;100.00;101486.08;1663725;85;21178;-83
2021/11/09 11:39:57;;;;;;;2.58;1.87;;;;;;;7.04;100.00;101481.23;1651729;86;21079;-83
2021/11/09 11:42:23;;;;;;;1.95;1.50;;;;;;;7.00;100.00;101491.37;1602985;88;21077;-83
2021/11/09 11:45:01;;;;;;;1.85;1.40;;;;;;;6.93;100.00;101505.05;1633190;86;21081;-83
2021/11/09 11:47:29;;;;;;;1.60;1.27;;;;;;;6.84;100.00;101505.45;1633712;86;21145;-84
2021/11/09 11:50:00;;;;;;;2.27;1.32;;;;;;;6.78;100.00;101498.36;1621578;88;21881;-83
2021/11/09 11:52:46;;;;;;;2.67;1.60;;;;;;;6.75;100.00;101500.25;1607126;86;21090;-83
2021/11/09 11:55:27;;;;;;;1.50;1.40;;;;;;;6.73;100.00;101502.88;1625883;88;21137;-83
2021/11/09 11:58:08;;;;;;;;;;;;;;;6.72;100.00;101501.23;1636197;86;21047;-84
2021/11/09 12:00:52;;;;;;;2.12;1.55;;;;;;;6.74;100.00;101505.04;1633518;86;20496;-82
2021/11/09 12:03:25;;;;;;;7.80;2.15;;;;;;;6.73;100.00;101502.88;1631241;86;21583;-83
2021/11/09 12:05:58;;;;;;;17.75;2.47;;;;;;;6.73;100.00;101514.53;1637890;86;21551;-83
2021/11/09 12:08:46;;;;;;;2.42;1.50;;;;;;;6.73;100.00;101517.59;1631044;86;21082;-84
2021/11/09 12:11:35;;;;;;;1.37;1.02;;;;;;;6.69;100.00;101523.83;1627752;87;21833;-84
2021/11/09 12:14:06;;;;;;;1.20;1.10;;;;;;;6.61;100.00;101519.80;1627766;87;21133;-83
2021/11/09 12:16:42;;;;;;;5.37;1.32;;;;;;;6.54;100.00;101533.09;1640073;86;21855;-82
2021/11/09 12:19:33;;;;;;;5.97;1.52;;;;;;;6.47;100.00;101537.68;1633680;86;21082;-82
2021/11/09 12:22:24;;;;;;;5.17;1.40;;;;;;;6.40;100.00;101538.42;1668683;85;21101;-83
2021/11/09 12:25:00;;;;;;;3.62;1.60;;;;;;;6.37;100.00;101542.42;1666768;85;21665;-84
2021/11/09 12:27:52;;;;;;;5.12;1.65;;;;;;;6.35;100.00;101553.28;1661925;86;21033;-82
2021/11/09 12:30:40;;;;;;;8.23;2.08;;;;;;;6.33;100.00;101554.25;1607806;87;21073;-83
2021/11/09 12:33:24;;;;;;;2.52;1.77;;;;;;;6.31;100.00;101555.63;1611590;87;21038;-83
2021/11/09 12:36:10;;;;;;;2.37;1.77;;;;;;;6.28;100.00;101559.19;1589200;86;21137;-83
2021/11/09 12:38:43;;;;;;;1.30;1.20;;;;;;;6.23;100.00;101568.03;1625855;86;21678;-82
2021/11/09 12:41:29;;;;;;;3.50;1.62;;;;;;;6.13;100.00;101559.80;1623380;87;21039;-82
2021/11/09 12:44:08;;;;;;;2.02;1.77;;;;;;;6.02;100.00;101567.17;1621773;87;21149;-82
2021/11/09 12:46:40;;;;;;;2.52;1.70;;;;;;;5.95;100.00;101563.95;1653349;84;21073;-83
2021/11/09 12:49:17;;;;;;;3.55;2.50;;;;;;;5.87;100.00;101561.69;1660554;85;21069;-82
2021/11/09 12:51:48;;;;;;;3.50;2.50;;;;;;;5.85;100.00;101559.61;1649534;86;21136;-83
2021/11/09 12:54:27;;;;;;;;;;;;;;;5.83;100.00;101573.89;1660189;86;21119;-82
2021/11/09 12:57:02;;;;;;;4.95;2.40;;;;;;;5.88;100.00;101574.15;1662853;84;21790;-82
2021/11/09 12:59:41;;;;;;;4.72;2.27;;;;;;;5.90;100.00;101578.35;1600253;87;21077;-83
2021/11/09 13:02:25;;;;;;;4.08;2.20;;;;;;;5.93;100.00;101581.29;1636682;86;21065;-82
2021/11/09 13:04:49;;;;;;;3.25;2.20;;;;;;;5.91;100.00;101572.28;1642534;86;21050;-82
2021/11/09 13:07:32;;;;;;;3.37;2.30;;;;;;;5.88;100.00;101570.27;1644863;86;21069;-82
2021/11/09 13:10:06;;;;;;;9.20;2.80;;;;;;;5.83;100.00;101578.20;1627736;87;21024;-82
2021/11/09 13:12:34;;;;;;;6.45;3.00;;;;;;;5.80;100.00;101576.59;1659550;85;21098;-82
2021/11/09 13:15:17;;;;;;;3.95;2.67;;;;;;;5.80;100.00;101582.23;1640821;86;21551;-82
2021/11/09 13:17:53;;;;;;;4.05;2.60;;;;;;;5.74;100.00;101582.02;1661678;86;21113;-83
2021/11/09 13:20:34;;;;;;;5.40;2.80;;;;;;;5.72;100.00;101582.98;1657325;85;21499;-83
2021/11/09 13:23:04;;;;;;;9.78;3.83;;;;;;;5.66;100.00;101578.42;1627672;85;21093;-82
2021/11/09 13:25:51;;;;;;;4.83;3.10;;;;;;;5.63;100.00;101583.72;1638454;85;21191;-82
2021/11/09 13:28:24;;;;;;;3.60;2.50;;;;;;;5.62;100.00;101591.52;1663934;85;21121;-82
2021/11/09 13:30:59;;;;;;;3.77;2.10;;;;;;;5.58;100.00;101598.55;1634464;86;21327;-82
2021/11/09 13:33:40;;;;;;;3.05;2.20;;;;;;;5.53;100.00;101589.67;1642417;86;22101;-82
2021/11/09 13:36:08;;;;;;;5.00;1.95;;;;;;;5.50;100.00;101600.58;1636986;87;21013;-82
2021/11/09 13:38:41;;;;;;;3.27;2.12;;;;;;;5.45;100.00;101616.72;1612591;87;21104;-82
2021/11/09 13:41:18;;;;;;;2.35;1.65;;;;;;;5.35;100.00;101613.18;1613283;86;21597;-82
2021/11/09 13:43:59;;;;;;;4.85;1.95;;;;;;;5.27;100.00;101620.83;1620568;86;21085;-82
2021/11/09 13:46:30;;;;;;;2.50;1.85;;;;;;;5.20;100.00;101627.95;1657135;86;21558;-82